Time;durP1;ratioP1;P1;durP2;ratioP2;P2;SDS_P1;SDS_P2;PMS_P1;PMS_P2;Temp;Humidity;BMP_temperature;BMP_pressure;BME280_temperature;BME280_humidity;BME280_pressure;Samples;Min_cycle;Max_cycle;Signal;HPM_P1;HPM_P2
2021/07/22 00:01:13;;;;;;;4.38;3.97;;;19.50;99.90;;;;;;5070784;28;20534;-71
2021/07/22 00:03:40;;;;;;;5.53;3.88;;;19.50;99.90;;;;;;5070215;28;20193;-71
2021/07/22 00:06:07;;;;;;;6.28;4.22;;;19.50;99.90;;;;;;5102164;28;20223;-71
2021/07/22 00:08:36;;;;;;;5.63;3.97;;;19.50;99.90;;;;;;5064205;28;20201;-71
2021/07/22 00:11:02;;;;;;;6.15;3.97;;;19.50;99.90;;;;;;5070590;28;20189;-71
2021/07/22 00:13:29;;;;;;;6.45;4.25;;;19.40;99.90;;;;;;5071083;28;20585;-70
2021/07/22 00:15:57;;;;;;;3.75;3.42;;;19.40;99.90;;;;;;5066734;28;20193;-70
2021/07/22 00:18:25;;;;;;;4.20;3.60;;;19.40;99.90;;;;;;5059777;28;20648;-71
2021/07/22 00:20:52;;;;;;;4.63;3.30;;;19.40;99.90;;;;;;5058452;28;20558;-71
2021/07/22 00:23:19;;;;;;;3.83;3.47;;;19.30;99.90;;;;;;5070725;28;20225;-71
2021/07/22 00:25:47;;;;;;;3.67;3.10;;;19.30;99.90;;;;;;5070012;28;20228;-71
2021/07/22 00:28:14;;;;;;;3.78;3.35;;;19.30;99.90;;;;;;5070464;28;20208;-71
2021/07/22 00:30:41;;;;;;;3.47;3.17;;;19.30;99.90;;;;;;5058238;28;20221;-71
2021/07/22 00:33:07;;;;;;;3.63;3.08;;;19.30;99.90;;;;;;5095206;28;20321;-70
2021/07/22 00:35:35;;;;;;;3.90;3.45;;;19.30;99.90;;;;;;5101987;28;20208;-71
2021/07/22 00:38:02;;;;;;;5.75;2.80;;;19.30;99.90;;;;;;5069756;28;20589;-71
2021/07/22 00:40:29;;;;;;;5.20;3.28;;;19.20;99.90;;;;;;5088665;28;20205;-72
2021/07/22 00:43:00;;;;;;;3.10;2.80;;;19.20;99.90;;;;;;5091235;28;20664;-70
2021/07/22 00:45:28;;;;;;;4.95;3.20;;;19.20;99.90;;;;;;5068051;28;20229;-71
2021/07/22 00:47:55;;;;;;;2.90;2.70;;;19.70;99.90;;;;;;5101941;28;20289;-71
2021/07/22 00:50:23;;;;;;;4.97;2.80;;;19.50;99.90;;;;;;5100305;28;20204;-72
2021/07/22 00:52:50;;;;;;;3.95;3.03;;;19.10;99.90;;;;;;5095097;28;20228;-71
2021/07/22 00:55:19;;;;;;;2.92;2.63;;;19.10;99.90;;;;;;5061830;28;20248;-71
2021/07/22 00:57:46;;;;;;;4.43;2.80;;;19.10;99.90;;;;;;5102021;28;20236;-70
2021/07/22 01:00:15;;;;;;;3.17;2.60;;;19.10;99.90;;;;;;5068934;28;20280;-70
2021/07/22 01:02:44;;;;;;;3.20;2.90;;;19.10;99.90;;;;;;5069900;28;20296;-71
2021/07/22 01:05:12;;;;;;;5.57;3.70;;;19.10;99.90;;;;;;5068082;28;20221;-71
2021/07/22 01:07:39;;;;;;;4.82;3.17;;;19.10;99.90;;;;;;5053714;28;20212;-71
2021/07/22 01:10:10;;;;;;;3.63;3.30;;;19.10;99.90;;;;;;5062935;28;20288;-71
2021/07/22 01:12:39;;;;;;;3.67;3.13;;;19.10;99.90;;;;;;5057538;28;20251;-71
2021/07/22 01:15:06;;;;;;;3.60;3.17;;;19.10;99.90;;;;;;5101453;28;20199;-71
2021/07/22 01:17:43;;;;;;;6.15;3.15;;;19.10;99.90;;;;;;5064118;28;20490;-72
2021/07/22 01:20:15;;;;;;;6.15;3.20;;;19.10;99.90;;;;;;5060883;28;20228;-72
2021/07/22 01:22:43;;;;;;;5.95;3.63;;;19.00;99.90;;;;;;5101893;28;20259;-71
2021/07/22 01:25:11;;;;;;;3.35;2.67;;;19.10;99.90;;;;;;5068651;28;20227;-72
2021/07/22 01:27:40;;;;;;;4.47;3.03;;;19.00;99.90;;;;;;5068035;28;20213;-72
2021/07/22 01:30:12;;;;;;;4.18;3.30;;;19.00;99.90;;;;;;5053968;28;20740;-71
2021/07/22 01:32:39;;;;;;;4.70;3.40;;;19.00;99.90;;;;;;5067750;28;20675;-71
2021/07/22 01:35:08;;;;;;;6.85;3.67;;;19.00;99.90;;;;;;5093059;28;20206;-71
2021/07/22 01:37:38;;;;;;;3.70;3.40;;;19.00;99.90;;;;;;5068803;28;20196;-70
2021/07/22 01:40:10;;;;;;;4.57;3.80;;;18.90;99.90;;;;;;5060704;28;20204;-70
2021/07/22 01:42:37;;;;;;;3.90;3.13;;;19.00;99.90;;;;;;5060879;28;20600;-71
2021/07/22 01:45:05;;;;;;;8.32;3.80;;;18.90;99.90;;;;;;5068526;28;20221;-71
2021/07/22 01:47:35;;;;;;;4.60;3.55;;;18.90;99.90;;;;;;5091622;28;20201;-71
2021/07/22 01:50:03;;;;;;;4.22;3.78;;;19.10;99.90;;;;;;5058782;28;20553;-71
2021/07/22 01:52:30;;;;;;;4.43;3.85;;;18.90;99.90;;;;;;5061223;28;20198;-71
2021/07/22 01:55:00;;;;;;;6.55;3.60;;;18.80;99.90;;;;;;5053584;28;20211;-70
2021/07/22 01:57:28;;;;;;;3.35;3.05;;;18.80;99.90;;;;;;5095561;28;20217;-70
2021/07/22 01:59:59;;;;;;;4.53;3.75;;;18.80;99.90;;;;;;5061511;28;20193;-70
2021/07/22 02:02:27;;;;;;;4.68;3.50;;;18.80;99.90;;;;;;5067075;28;20219;-71
2021/07/22 02:04:57;;;;;;;6.53;3.90;;;18.70;99.90;;;;;;5099778;28;20228;-71
2021/07/22 02:07:24;;;;;;;4.00;3.47;;;18.70;99.90;;;;;;5069584;28;20290;-71
2021/07/22 02:10:00;;;;;;;3.92;3.47;;;18.70;99.90;;;;;;5082746;28;20215;-72
2021/07/22 02:12:27;;;;;;;5.30;3.20;;;18.70;99.90;;;;;;5101234;28;20590;-71
2021/07/22 02:14:55;;;;;;;3.97;3.60;;;19.40;99.90;;;;;;5066654;28;20209;-71
2021/07/22 02:17:23;;;;;;;9.03;3.70;;;18.70;99.90;;;;;;5092140;28;20241;-71
2021/07/22 02:19:50;;;;;;;4.18;3.78;;;18.70;99.90;;;;;;5050695;28;20335;-72
2021/07/22 02:22:17;;;;;;;4.05;3.65;;;18.70;99.90;;;;;;5081824;28;20212;-72
2021/07/22 02:24:55;;;;;;;4.18;3.72;;;19.70;99.90;;;;;;5062465;28;20217;-72
2021/07/22 02:27:36;;;;;;;4.68;3.67;;;18.60;99.90;;;;;;5100873;28;20262;-71
2021/07/22 02:30:05;;;;;;;5.75;3.83;;;18.60;99.90;;;;;;5063575;28;20201;-71
2021/07/22 02:32:32;;;;;;;5.97;3.78;;;18.60;99.90;;;;;;5067289;28;20217;-71
2021/07/22 02:35:00;;;;;;;4.18;3.70;;;18.60;99.90;;;;;;5096458;28;20700;-71
2021/07/22 02:37:47;;;;;;;4.43;3.65;;;18.60;99.90;;;;;;5084584;28;20765;-71
2021/07/22 02:40:19;;;;;;;4.93;3.63;;;18.60;99.90;;;;;;5085082;28;20288;-71
2021/07/22 02:42:48;;;;;;;3.50;3.20;;;18.60;99.90;;;;;;5069068;28;20669;-71
2021/07/22 02:45:19;;;;;;;4.78;3.40;;;18.50;99.90;;;;;;5072298;28;20261;-71
2021/07/22 02:47:46;;;;;;;3.90;3.60;;;18.50;99.90;;;;;;5075817;28;20200;-71
2021/07/22 02:50:14;;;;;;;4.05;3.53;;;18.50;99.90;;;;;;5083724;28;20200;-72
2021/07/22 02:52:44;;;;;;;5.72;4.25;;;18.50;99.90;;;;;;5077847;28;20203;-71
2021/07/22 02:55:13;;;;;;;3.92;3.50;;;18.50;99.90;;;;;;5081358;28;20220;-71
2021/07/22 02:57:40;;;;;;;4.47;3.58;;;18.50;99.90;;;;;;5057060;28;20229;-71
2021/07/22 03:00:10;;;;;;;5.97;3.72;;;18.50;99.90;;;;;;5067530;28;20208;-71
2021/07/22 03:02:37;;;;;;;7.40;4.10;;;18.50;99.90;;;;;;5083295;28;20257;-71
2021/07/22 03:05:05;;;;;;;6.85;3.80;;;18.50;99.90;;;;;;5083836;28;20239;-72
2021/07/22 03:07:34;;;;;;;5.60;3.70;;;18.50;99.90;;;;;;5067495;28;20212;-71
2021/07/22 03:10:02;;;;;;;3.67;3.37;;;18.50;99.90;;;;;;5072113;28;20215;-72
2021/07/22 03:12:30;;;;;;;4.60;4.10;;;18.50;99.90;;;;;;5085193;28;20674;-71
2021/07/22 03:15:01;;;;;;;5.03;3.97;;;18.60;99.90;;;;;;5075145;28;20213;-71
2021/07/22 03:17:31;;;;;;;4.65;3.65;;;18.50;99.90;;;;;;5086403;28;20209;-71
2021/07/22 03:20:01;;;;;;;6.03;4.20;;;18.50;99.90;;;;;;5058494;28;20939;-70
2021/07/22 03:22:38;;;;;;;4.53;3.67;;;18.50;99.90;;;;;;5090273;28;20213;-71
2021/07/22 03:25:24;;;;;;;3.50;3.20;;;19.20;99.90;;;;;;5061360;28;20232;-71
2021/07/22 03:28:04;;;;;;;4.80;3.50;;;18.60;99.90;;;;;;5092262;28;20270;-71
2021/07/22 03:30:49;;;;;;;4.47;3.92;;;19.30;99.90;;;;;;5086351;28;20216;-71
2021/07/22 03:33:40;;;;;;;5.30;4.00;;;18.60;99.90;;;;;;5076376;28;20212;-71
2021/07/22 03:36:17;;;;;;;4.30;3.90;;;18.60;99.90;;;;;;5084342;28;20204;-70
2021/07/22 03:38:52;;;;;;;4.77;3.60;;;18.60;99.90;;;;;;5069315;28;20207;-71
2021/07/22 03:41:48;;;;;;;5.25;4.10;;;18.70;99.90;;;;;;5053051;28;20212;-71
2021/07/22 03:44:41;;;;;;;6.32;4.22;;;18.70;99.90;;;;;;5078563;28;20214;-71
2021/07/22 03:47:14;;;;;;;5.47;3.92;;;18.70;99.90;;;;;;5059420;28;20216;-71
2021/07/22 03:49:44;;;;;;;4.10;3.70;;;19.00;99.90;;;;;;5082035;28;20239;-70
2021/07/22 03:52:22;;;;;;;8.30;4.43;;;18.80;99.90;;;;;;5088648;28;20627;-71
2021/07/22 03:54:54;;;;;;;6.05;4.20;;;18.80;99.90;;;;;;5087554;28;20757;-71
2021/07/22 03:57:23;;;;;;;5.63;4.53;;;18.80;99.90;;;;;;5079969;28;20199;-71
2021/07/22 03:59:50;;;;;;;4.25;3.85;;;19.10;99.90;;;;;;5056713;28;20711;-70
2021/07/22 04:02:17;;;;;;;6.00;4.00;;;19.70;99.90;;;;;;5088306;28;20491;-72
2021/07/22 04:04:46;;;;;;;10.38;4.05;;;18.80;99.90;;;;;;5081446;28;20610;-72
2021/07/22 04:07:14;;;;;;;4.60;3.65;;;19.00;99.90;;;;;;5064495;28;20232;-71
2021/07/22 04:09:50;;;;;;;5.57;3.80;;;18.90;99.90;;;;;;5079621;28;20201;-71
2021/07/22 04:12:36;;;;;;;5.80;3.90;;;18.90;99.90;;;;;;5065849;28;20595;-71
2021/07/22 04:15:28;;;;;;;6.28;3.95;;;18.90;99.90;;;;;;5070216;28;20192;-71
2021/07/22 04:18:23;;;;;;;5.13;3.73;;;18.90;99.90;;;;;;5068151;28;20209;-71
2021/07/22 04:21:05;;;;;;;4.30;3.78;;;19.00;99.90;;;;;;5096684;28;20211;-71
2021/07/22 04:23:51;;;;;;;3.83;3.53;;;19.00;99.90;;;;;;5060982;28;20216;-72
2021/07/22 04:26:34;;;;;;;4.05;3.38;;;19.10;99.90;;;;;;5088576;28;20233;-71
2021/07/22 04:29:20;;;;;;;6.80;3.72;;;19.10;99.90;;;;;;5069765;28;20664;-71
2021/07/22 04:31:48;;;;;;;4.75;3.55;;;19.20;99.90;;;;;;5070381;28;20309;-72
2021/07/22 04:34:34;;;;;;;7.85;4.13;;;19.20;99.90;;;;;;5068331;28;20351;-71
2021/07/22 04:37:31;;;;;;;4.97;4.47;;;19.30;99.90;;;;;;5085274;28;20217;-71
2021/07/22 04:40:25;;;;;;;4.25;3.42;;;19.30;99.90;;;;;;5084351;28;20204;-71
2021/07/22 04:43:12;;;;;;;4.25;3.63;;;19.40;99.90;;;;;;5047244;28;20233;-71
2021/07/22 04:46:02;;;;;;;3.88;3.58;;;19.40;99.90;;;;;;5045401;28;20225;-71
2021/07/22 04:49:01;;;;;;;4.75;4.13;;;19.60;99.90;;;;;;4986450;28;20249;-71
2021/07/22 04:51:38;;;;;;;5.97;3.97;;;19.70;99.90;;;;;;4974752;28;20204;-71
2021/07/22 04:54:17;;;;;;;3.97;3.60;;;19.90;99.90;;;;;;4984495;28;20665;-71
2021/07/22 04:56:45;;;;;;;4.13;3.72;;;20.00;99.90;;;;;;4988357;28;20218;-72
2021/07/22 04:59:15;;;;;;;3.70;3.40;;;20.20;99.90;;;;;;4987555;28;20211;-72
2021/07/22 05:01:43;;;;;;;3.88;3.50;;;20.30;99.90;;;;;;4980897;28;20287;-72
2021/07/22 05:04:17;;;;;;;3.78;3.47;;;20.40;99.90;;;;;;4970318;28;20216;-72
2021/07/22 05:06:51;;;;;;;4.93;3.30;;;20.60;99.90;;;;;;4971554;28;20228;-72
2021/07/22 05:09:45;;;;;;;4.50;3.58;;;20.70;99.90;;;;;;4981849;28;20667;-71
2021/07/22 05:12:34;;;;;;;3.80;3.50;;;20.90;99.90;;;;;;4987740;28;20318;-65
2021/07/22 05:15:19;;;;;;;4.80;3.90;;;21.10;99.90;;;;;;4968043;28;20215;-65
2021/07/22 05:18:05;;;;;;;5.28;3.70;;;21.20;99.90;;;;;;4967176;28;20279;-66
2021/07/22 05:20:50;;;;;;;3.75;3.45;;;21.30;99.90;;;;;;4983270;28;20209;-66
2021/07/22 05:23:30;;;;;;;3.90;3.55;;;21.40;99.90;;;;;;4991119;28;20213;-66
2021/07/22 05:26:24;;;;;;;4.05;3.75;;;21.40;99.90;;;;;;5048128;28;20745;-66
2021/07/22 05:29:00;;;;;;;4.47;4.07;;;21.50;99.90;;;;;;5060624;28;20205;-66
2021/07/22 05:31:44;;;;;;;6.10;4.03;;;21.50;99.90;;;;;;5058998;28;20277;-65
2021/07/22 05:34:21;;;;;;;4.85;3.63;;;21.50;99.90;;;;;;5065123;28;20189;-66
2021/07/22 05:37:11;;;;;;;4.15;3.72;;;21.60;99.90;;;;;;5069166;28;20204;-66
2021/07/22 05:39:44;;;;;;;3.35;3.15;;;21.60;99.90;;;;;;5068455;28;20221;-66
2021/07/22 05:42:13;;;;;;;3.10;2.90;;;21.70;99.90;;;;;;5069133;28;20715;-67
2021/07/22 05:44:40;;;;;;;2.97;2.78;;;21.80;99.90;;;;;;5098221;28;20217;-66
2021/07/22 05:47:07;;;;;;;3.25;2.95;;;21.90;99.90;;;;;;5067166;28;20237;-65
2021/07/22 05:49:34;;;;;;;3.10;2.80;;;22.10;99.90;;;;;;5087950;28;20198;-65
2021/07/22 05:52:01;;;;;;;3.72;3.00;;;22.30;99.90;;;;;;5066923;28;20266;-66
2021/07/22 05:54:28;;;;;;;3.05;2.83;;;22.50;99.90;;;;;;5068615;28;20553;-65
2021/07/22 05:56:55;;;;;;;3.95;2.85;;;22.70;99.90;;;;;;5068970;28;20268;-65
2021/07/22 05:59:23;;;;;;;2.28;2.15;;;22.80;99.90;;;;;;5068475;28;20534;-66
2021/07/22 06:01:50;;;;;;;2.25;2.15;;;23.00;99.90;;;;;;5068310;28;20215;-66
2021/07/22 06:04:17;;;;;;;3.13;2.85;;;23.20;99.90;;;;;;5067259;28;20194;-66
2021/07/22 06:06:44;;;;;;;2.70;2.50;;;23.40;99.90;;;;;;5064381;28;20578;-66
2021/07/22 06:09:11;;;;;;;2.80;2.60;;;23.80;99.90;;;;;;5065850;28;20280;-66
2021/07/22 06:11:38;;;;;;;2.53;2.33;;;25.10;99.90;;;;;;5068466;28;20193;-66
2021/07/22 06:14:05;;;;;;;2.20;2.10;;;26.60;97.50;;;;;;5067943;28;20227;-66
2021/07/22 06:16:34;;;;;;;2.22;2.00;;;27.80;94.50;;;;;;5068077;28;20189;-67
2021/07/22 06:19:01;;;;;;;2.05;1.95;;;29.10;91.50;;;;;;5066830;28;20890;-66
2021/07/22 06:21:28;;;;;;;2.92;2.72;;;29.80;87.50;;;;;;5067373;28;20225;-66
2021/07/22 06:23:54;;;;;;;2.38;2.28;;;30.30;83.80;;;;;;5062015;28;20284;-67
2021/07/22 06:26:21;;;;;;;2.13;2.03;;;31.00;80.40;;;;;;5053938;28;20240;-67
2021/07/22 06:28:48;;;;;;;2.50;2.30;;;31.80;76.50;;;;;;5056724;28;20207;-67
2021/07/22 06:31:15;;;;;;;2.65;2.35;;;32.50;73.10;;;;;;5048086;28;20230;-66
2021/07/22 06:33:43;;;;;;;2.53;2.33;;;33.00;70.00;;;;;;5050104;28;20209;-67
2021/07/22 06:36:10;;;;;;;5.75;2.60;;;33.50;67.70;;;;;;5058257;28;20192;-67
2021/07/22 06:38:37;;;;;;;2.75;2.50;;;33.80;64.00;;;;;;5059626;28;20199;-67
2021/07/22 06:41:04;;;;;;;3.45;2.85;;;34.00;63.00;;;;;;5059384;28;20204;-66
2021/07/22 06:43:32;;;;;;;4.13;2.60;;;33.90;61.00;;;;;;5058354;28;20197;-67
2021/07/22 06:45:59;;;;;;;2.63;2.42;;;33.70;61.50;;;;;;5057870;28;20754;-66
2021/07/22 06:48:26;;;;;;;2.10;2.00;;;33.50;60.50;;;;;;5056407;28;20215;-66
2021/07/22 06:50:55;;;;;;;2.60;2.40;;;33.30;60.40;;;;;;5059048;28;20233;-67
2021/07/22 06:53:22;;;;;;;2.55;2.35;;;33.00;60.30;;;;;;5065104;28;20200;-67
2021/07/22 06:55:52;;;;;;;2.97;2.78;;;32.70;60.10;;;;;;5065916;28;20844;-66
2021/07/22 06:58:19;;;;;;;2.50;2.40;;;32.50;60.10;;;;;;5063669;28;20203;-65
2021/07/22 07:00:46;;;;;;;2.80;2.60;;;32.30;60.90;;;;;;5064868;28;20193;-66
2021/07/22 07:03:13;;;;;;;3.03;2.83;;;32.00;60.00;;;;;;5065007;28;20189;-66
2021/07/22 07:05:40;;;;;;;2.80;2.60;;;31.70;60.10;;;;;;5093594;28;20603;-66
2021/07/22 07:08:08;;;;;;;2.78;2.65;;;31.50;60.20;;;;;;5064422;28;20231;-67
2021/07/22 07:10:35;;;;;;;3.80;3.03;;;31.40;60.60;;;;;;5062781;28;20561;-66
2021/07/22 07:13:02;;;;;;;5.00;3.78;;;31.40;60.20;;;;;;5057286;28;20244;-81
2021/07/22 07:15:30;;;;;;;3.60;3.30;;;31.80;59.20;;;;;;5062213;28;20257;-83
2021/07/22 07:18:02;;;;;;;3.40;3.10;;;32.20;58.00;;;;;;5064119;28;20189;-81
2021/07/22 07:20:29;;;;;;;3.15;2.95;;;32.90;57.00;;;;;;5093811;28;20573;-85
2021/07/22 07:22:56;;;;;;;3.20;3.00;;;33.50;55.80;;;;;;5058220;28;20289;-84
2021/07/22 07:25:25;;;;;;;3.88;3.03;;;34.30;55.50;;;;;;5059251;28;20587;-82
2021/07/22 07:27:52;;;;;;;3.00;2.80;;;34.40;53.80;;;;;;5062125;28;20228;-81
2021/07/22 07:30:19;;;;;;;3.15;2.95;;;34.10;53.80;;;;;;5065531;28;20207;-81
2021/07/22 07:32:47;;;;;;;2.90;2.70;;;33.80;53.90;;;;;;5060207;28;20197;-81
2021/07/22 07:35:15;;;;;;;3.05;2.85;;;33.40;54.30;;;;;;5066924;28;20197;-81
2021/07/22 07:37:42;;;;;;;2.53;2.42;;;32.80;54.20;;;;;;5067544;28;20304;-80
2021/07/22 07:40:10;;;;;;;3.03;2.72;;;32.50;54.60;;;;;;5068674;28;20185;-84
2021/07/22 07:42:39;;;;;;;2.65;2.55;;;32.00;54.90;;;;;;5067034;28;20205;-81
2021/07/22 07:45:07;;;;;;;3.03;2.88;;;31.60;55.40;;;;;;5069818;28;20202;-81
2021/07/22 07:47:34;;;;;;;3.20;3.00;;;31.20;56.30;;;;;;5063663;28;20224;-78
2021/07/22 07:50:01;;;;;;;4.95;2.92;;;30.80;56.20;;;;;;5065657;28;20205;-81
2021/07/22 07:52:29;;;;;;;4.70;3.15;;;30.40;56.50;;;;;;5066967;28;20203;-81
2021/07/22 07:54:56;;;;;;;3.30;3.10;;;30.10;57.50;;;;;;5066436;28;20200;-81
2021/07/22 07:57:23;;;;;;;4.80;2.92;;;29.90;57.30;;;;;;5068045;28;20228;-81
2021/07/22 07:59:52;;;;;;;7.57;3.10;;;29.90;57.40;;;;;;5066535;28;20208;-80
2021/07/22 08:02:19;;;;;;;3.17;2.97;;;29.90;57.70;;;;;;5067163;28;20270;-81
2021/07/22 08:04:46;;;;;;;4.45;3.40;;;30.00;57.50;;;;;;5065670;28;20204;-84
2021/07/22 08:07:13;;;;;;;3.35;3.05;;;30.00;57.50;;;;;;5099862;28;20315;-81
2021/07/22 08:09:40;;;;;;;3.50;3.20;;;30.00;57.70;;;;;;5066420;28;20216;-82
2021/07/22 08:12:09;;;;;;;3.95;3.65;;;30.00;57.50;;;;;;5070790;28;20221;-83
2021/07/22 08:14:37;;;;;;;3.45;3.15;;;30.10;57.70;;;;;;5080280;28;20291;-82
2021/07/22 08:17:07;;;;;;;5.82;3.47;;;30.20;57.20;;;;;;5064894;28;20197;-82
2021/07/22 08:19:34;;;;;;;4.22;3.10;;;30.40;57.50;;;;;;5063880;28;20189;-82
2021/07/22 08:22:02;;;;;;;3.10;2.90;;;30.70;57.20;;;;;;5066480;28;20304;-82
2021/07/22 08:24:29;;;;;;;3.78;3.42;;;30.90;56.60;;;;;;5063024;28;20669;-81
2021/07/22 08:26:56;;;;;;;4.43;4.03;;;31.10;55.60;;;;;;5065893;28;20276;-83
2021/07/22 08:29:23;;;;;;;3.40;3.10;;;31.00;55.50;;;;;;5067242;28;20189;-82
2021/07/22 08:31:50;;;;;;;3.90;3.50;;;30.80;55.40;;;;;;5065802;28;20280;-81
2021/07/22 08:34:20;;;;;;;3.85;2.90;;;30.70;55.70;;;;;;5066571;28;20201;-83
2021/07/22 08:36:46;;;;;;;3.50;3.20;;;30.80;55.90;;;;;;5094208;28;20250;-82
2021/07/22 08:39:13;;;;;;;4.00;3.70;;;31.10;55.50;;;;;;5066242;28;20197;-85
2021/07/22 08:41:44;;;;;;;3.47;3.20;;;31.30;54.70;;;;;;5098353;27;20200;-84
2021/07/22 08:44:12;;;;;;;4.25;3.95;;;31.80;54.40;;;;;;5067351;28;20329;-81
2021/07/22 08:46:42;;;;;;;3.40;3.13;;;32.40;53.30;;;;;;5093019;28;20380;-81
2021/07/22 08:49:09;;;;;;;5.70;3.65;;;32.80;52.70;;;;;;5065977;28;20197;-81
2021/07/22 08:51:38;;;;;;;4.05;3.67;;;32.80;52.20;;;;;;5060412;28;20559;-80
2021/07/22 08:54:05;;;;;;;3.22;3.03;;;32.80;51.80;;;;;;5055297;28;20212;-80
2021/07/22 08:56:33;;;;;;;3.65;3.40;;;32.80;51.80;;;;;;5092491;28;20670;-74
2021/07/22 08:59:02;;;;;;;3.67;3.38;;;32.50;51.40;;;;;;5061432;28;20295;-81
2021/07/22 09:01:33;;;;;;;3.80;3.55;;;32.50;51.20;;;;;;5097965;28;20197;-69
2021/07/22 09:04:00;;;;;;;4.50;3.50;;;33.20;51.10;;;;;;5089626;28;20201;-69
2021/07/22 09:06:27;;;;;;;3.45;3.25;;;33.70;50.70;;;;;;5065103;28;20213;-68
2021/07/22 09:08:56;;;;;;;3.75;3.45;;;33.60;50.80;;;;;;5066178;28;20657;-68
2021/07/22 09:11:23;;;;;;;3.90;3.47;;;33.00;50.10;;;;;;5087323;28;20201;-69
2021/07/22 09:14:09;;;;;;;4.75;4.30;;;32.40;50.50;;;;;;5059101;28;20586;-69
2021/07/22 09:16:37;;;;;;;4.20;3.78;;;31.80;50.80;;;;;;5056577;28;20212;-69
2021/07/22 09:19:04;;;;;;;5.85;3.92;;;31.30;51.10;;;;;;5062946;28;20664;-67
2021/07/22 09:21:31;;;;;;;3.92;3.63;;;30.90;51.50;;;;;;5065012;28;20195;-67
2021/07/22 09:24:07;;;;;;;4.03;3.63;;;30.60;51.80;;;;;;5058951;28;20194;-66
2021/07/22 09:26:36;;;;;;;3.92;3.55;;;30.30;52.30;;;;;;5063319;28;20197;-67
2021/07/22 09:29:05;;;;;;;4.85;3.78;;;30.80;52.70;;;;;;5061368;28;20208;-67
2021/07/22 09:31:33;;;;;;;3.58;3.28;;;31.80;51.80;;;;;;5061336;28;20730;-67
2021/07/22 09:34:00;;;;;;;3.53;3.33;;;33.40;50.70;;;;;;5060752;28;20208;-67
2021/07/22 09:36:34;;;;;;;3.55;3.25;;;34.80;49.30;;;;;;5065670;28;20215;-67
2021/07/22 09:39:22;;;;;;;4.03;3.63;;;35.00;48.60;;;;;;5054162;28;20207;-68
2021/07/22 09:42:00;;;;;;;4.38;3.97;;;34.50;48.50;;;;;;5059609;28;20210;-67
2021/07/22 09:44:29;;;;;;;3.40;3.20;;;33.90;48.80;;;;;;5054595;28;20205;-67
2021/07/22 09:46:57;;;;;;;4.55;3.78;;;33.40;49.70;;;;;;5057529;28;20689;-68
2021/07/22 09:49:31;;;;;;;4.40;4.10;;;33.00;49.50;;;;;;5054063;28;20197;-67
2021/07/22 09:52:01;;;;;;;3.60;3.40;;;32.70;49.80;;;;;;5056558;28;20206;-66
2021/07/22 09:54:35;;;;;;;4.60;3.72;;;32.40;50.00;;;;;;5097433;28;20197;-67
2021/07/22 09:57:04;;;;;;;4.38;3.50;;;32.30;50.20;;;;;;5057617;28;20278;-67
2021/07/22 09:59:31;;;;;;;4.25;3.95;;;32.10;50.10;;;;;;5056599;28;20622;-67
2021/07/22 10:02:02;;;;;;;3.92;3.60;;;32.00;50.20;;;;;;5064699;28;20197;-67
2021/07/22 10:04:32;;;;;;;3.50;3.30;;;31.70;50.40;;;;;;5054439;28;20205;-65
2021/07/22 10:07:01;;;;;;;4.95;3.60;;;31.40;50.50;;;;;;5064708;28;20209;-65
2021/07/22 10:09:33;;;;;;;3.92;3.63;;;31.20;50.80;;;;;;5059363;28;20244;-66
2021/07/22 10:12:02;;;;;;;3.30;3.10;;;31.00;51.00;;;;;;5063064;28;20243;-65
2021/07/22 10:14:31;;;;;;;3.67;3.42;;;30.80;51.30;;;;;;5100190;28;20227;-66
2021/07/22 10:17:01;;;;;;;3.80;3.50;;;30.60;50.80;;;;;;5068380;28;20660;-66
2021/07/22 10:19:30;;;;;;;4.22;3.22;;;30.50;50.60;;;;;;5064584;28;20201;-66
2021/07/22 10:21:58;;;;;;;2.92;2.72;;;31.20;50.70;;;;;;5067198;28;20197;-66
2021/07/22 10:24:25;;;;;;;2.92;2.70;;;33.00;49.40;;;;;;5100010;28;20201;-66
2021/07/22 10:26:53;;;;;;;3.80;3.50;;;34.20;47.90;;;;;;5100809;28;20672;-67
2021/07/22 10:29:22;;;;;;;3.42;3.20;;;34.00;47.10;;;;;;5101093;28;20665;-66
2021/07/22 10:31:51;;;;;;;2.97;2.78;;;33.60;47.70;;;;;;5068147;28;20201;-67
2021/07/22 10:34:20;;;;;;;3.33;3.13;;;34.30;47.50;;;;;;5067400;28;20254;-67
2021/07/22 10:36:48;;;;;;;2.65;2.55;;;34.10;47.00;;;;;;5067541;28;20713;-67
2021/07/22 10:39:16;;;;;;;3.20;3.00;;;33.50;47.50;;;;;;5066648;28;20283;-67
2021/07/22 10:41:43;;;;;;;3.00;2.80;;;32.80;47.90;;;;;;5083825;28;20198;-67
2021/07/22 10:44:33;;;;;;;3.38;3.17;;;32.20;48.40;;;;;;5059869;28;20217;-67
2021/07/22 10:47:02;;;;;;;2.53;2.40;;;31.60;48.80;;;;;;5068384;28;20212;-67
2021/07/22 10:49:40;;;;;;;3.10;2.90;;;31.30;49.30;;;;;;5098998;28;20293;-67
2021/07/22 10:52:08;;;;;;;2.47;2.20;;;31.00;49.30;;;;;;5068274;28;20197;-67
2021/07/22 10:54:51;;;;;;;2.95;2.75;;;31.10;49.80;;;;;;5059923;28;20197;-68
2021/07/22 10:57:38;;;;;;;3.00;2.80;;;32.30;49.00;;;;;;5068516;28;20200;-66
2021/07/22 11:00:08;;;;;;;3.08;2.88;;;32.70;48.30;;;;;;5066864;28;20633;-67
2021/07/22 11:02:45;;;;;;;3.30;3.00;;;32.40;48.00;;;;;;5071497;28;20232;-66
2021/07/22 11:05:34;;;;;;;3.03;2.83;;;31.90;48.40;;;;;;5059817;28;20192;-68
2021/07/22 11:08:18;;;;;;;4.10;3.40;;;31.30;49.00;;;;;;5058114;28;20219;-66
2021/07/22 11:10:52;;;;;;;3.20;2.92;;;30.80;49.60;;;;;;5104304;28;20680;-67
2021/07/22 11:13:45;;;;;;;2.97;2.78;;;30.50;49.90;;;;;;5058813;28;20708;-67
2021/07/22 11:16:21;;;;;;;3.20;3.00;;;30.30;50.30;;;;;;5070742;28;20209;-67
2021/07/22 11:18:53;;;;;;;3.03;2.80;;;30.30;50.60;;;;;;5099891;27;20204;-67
2021/07/22 11:21:26;;;;;;;3.03;2.83;;;30.20;50.60;;;;;;5091368;28;20204;-67
2021/07/22 11:24:04;;;;;;;2.67;2.50;;;30.30;50.50;;;;;;5087451;28;20688;-68
2021/07/22 11:26:33;;;;;;;4.05;3.13;;;31.60;49.90;;;;;;5062368;28;20274;-66
2021/07/22 11:29:02;;;;;;;3.05;2.80;;;33.60;47.90;;;;;;5068232;28;20692;-67
2021/07/22 11:31:31;;;;;;;2.83;2.72;;;35.30;46.40;;;;;;5065142;28;20197;-66
2021/07/22 11:34:02;;;;;;;2.50;2.40;;;36.90;45.10;;;;;;5065356;28;20197;-66
2021/07/22 11:36:31;;;;;;;3.15;2.95;;;38.00;43.20;;;;;;5066482;28;20217;-65
2021/07/22 11:38:58;;;;;;;2.70;2.58;;;38.80;42.30;;;;;;5066132;28;20200;-65
2021/07/22 11:41:25;;;;;;;4.40;4.00;;;39.50;41.30;;;;;;5066721;28;20211;-65
2021/07/22 11:43:55;;;;;;;3.85;3.55;;;39.80;37.80;;;;;;5065154;28;20204;-65
2021/07/22 11:46:40;;;;;;;3.70;3.50;;;39.40;36.70;;;;;;5063400;28;20192;-65
2021/07/22 11:49:09;;;;;;;2.90;2.80;;;38.00;37.20;;;;;;5064996;28;20212;-67
2021/07/22 11:51:36;;;;;;;3.50;3.30;;;36.80;38.90;;;;;;5064815;28;20212;-66
2021/07/22 11:54:04;;;;;;;3.13;2.92;;;35.90;40.20;;;;;;5061526;28;21020;-66
2021/07/22 11:56:32;;;;;;;3.03;2.78;;;36.10;40.40;;;;;;5094119;28;20200;-67
2021/07/22 11:58:59;;;;;;;3.83;3.63;;;36.90;40.10;;;;;;5064308;28;20188;-66
2021/07/22 12:01:26;;;;;;;2.85;2.75;;;36.90;39.70;;;;;;5096369;27;20200;-65
2021/07/22 12:03:55;;;;;;;2.83;2.63;;;36.40;40.10;;;;;;5059457;28;20645;-66
2021/07/22 12:06:23;;;;;;;3.10;2.90;;;35.70;40.70;;;;;;5061725;28;20569;-66
2021/07/22 12:09:09;;;;;;;2.83;2.70;;;35.00;41.10;;;;;;5062505;28;20530;-66
2021/07/22 12:11:44;;;;;;;3.58;3.38;;;34.20;41.30;;;;;;5061310;28;20211;-67
2021/07/22 12:14:11;;;;;;;3.00;2.80;;;33.60;41.70;;;;;;5055937;28;20232;-66
2021/07/22 12:16:38;;;;;;;3.00;2.80;;;33.10;42.00;;;;;;5064569;28;20200;-66
2021/07/22 12:19:06;;;;;;;3.75;3.45;;;32.60;42.20;;;;;;5063913;28;20198;-67
2021/07/22 12:21:34;;;;;;;2.85;2.72;;;32.00;42.70;;;;;;5092031;28;20201;-65
2021/07/22 12:24:17;;;;;;;3.00;2.80;;;31.40;43.40;;;;;;5063395;28;20201;-65
2021/07/22 12:26:44;;;;;;;2.75;2.38;;;31.00;44.00;;;;;;5064528;28;20250;-65
2021/07/22 12:29:11;;;;;;;2.72;2.63;;;30.80;44.50;;;;;;5062815;28;20686;-65
2021/07/22 12:31:40;;;;;;;2.53;2.38;;;30.60;44.60;;;;;;5091363;28;20656;-65
2021/07/22 12:34:09;;;;;;;2.85;2.70;;;30.40;44.90;;;;;;5048526;28;20681;-65
2021/07/22 12:36:38;;;;;;;2.50;2.40;;;30.30;45.00;;;;;;5063076;28;20213;-65
2021/07/22 12:39:19;;;;;;;3.25;2.97;;;30.20;45.40;;;;;;5065011;28;20661;-66
2021/07/22 12:41:48;;;;;;;3.40;3.10;;;30.10;45.60;;;;;;5064430;28;20209;-65
2021/07/22 12:44:43;;;;;;;3.03;2.83;;;30.00;45.70;;;;;;5063681;28;20204;-65
2021/07/22 12:47:27;;;;;;;2.80;2.60;;;29.80;45.90;;;;;;5058167;28;20212;-66
2021/07/22 12:49:55;;;;;;;2.72;2.55;;;29.80;46.10;;;;;;5058743;28;20239;-65
2021/07/22 12:52:22;;;;;;;3.45;2.95;;;29.80;46.30;;;;;;5058001;28;20198;-66
2021/07/22 12:54:49;;;;;;;2.88;2.60;;;29.90;46.60;;;;;;5057990;28;20561;-78
2021/07/22 12:57:34;;;;;;;2.75;2.55;;;29.90;46.60;;;;;;5098163;27;20205;-78
2021/07/22 13:00:10;;;;;;;2.78;2.67;;;30.00;46.40;;;;;;5063142;28;20683;-79
2021/07/22 13:02:38;;;;;;;3.03;2.83;;;30.00;46.20;;;;;;5061445;28;20258;-80
2021/07/22 13:05:10;;;;;;;2.53;2.42;;;29.90;45.90;;;;;;5063416;28;20193;-78
2021/07/22 13:07:37;;;;;;;2.95;2.75;;;30.00;45.90;;;;;;5065914;28;20287;-77
2021/07/22 13:10:05;;;;;;;2.80;2.60;;;30.00;46.00;;;;;;5056383;28;20585;-78